Terminal Aerodrome Forecast
Issued by NWS Raleigh/Durham, NC

Current Version | Previous Version | Text Only | Print | Product List | Glossary On
Versions: 1 2 3 4 5 6 7 8 9 10 11 12 13 14 15 16 17 18 19 20 21 22 23 24 25 26 27 28
000 FTUS42 KRAH 180530 TAFGSO TAF KGSO 180530Z 1806/1906 VRB02KT P6SM SCT040 OVC080 FM181000 00000KT P6SM BKN250 FM181800 25006KT P6SM FEW250 FM190000 00000KT P6SM FEW250=

USA.gov is the U.S. government's official web portal to all federal, state and local government web resources and services.